Time;durP1;ratioP1;P1;durP2;ratioP2;P2;SDS_P1;SDS_P2;PMS_P1;PMS_P2;Temp;Humidity;BMP_temperature;BMP_pressure;BME280_temperature;BME280_humidity;BME280_pressure;Samples;Min_cycle;Max_cycle;Signal;HPM_P1;HPM_P2
2023/06/25 00:01:18;;;;;;;;;;;26.00;53.90;;;;;;5075059;28;19930;-58
2023/06/25 00:03:45;;;;;;;;;;;26.00;54.40;;;;;;5075733;28;19920;-59
2023/06/25 00:06:12;;;;;;;;;;;26.00;53.90;;;;;;5075767;28;19928;-58
2023/06/25 00:08:39;;;;;;;;;;;26.00;53.90;;;;;;5075485;28;20380;-58
2023/06/25 00:11:06;;;;;;;;;;;26.00;54.00;;;;;;5074577;28;19930;-58
2023/06/25 00:13:33;;;;;;;;;;;26.00;54.00;;;;;;5074955;28;20440;-59
2023/06/25 00:16:00;;;;;;;;;;;26.00;54.00;;;;;;5075476;28;20323;-58
2023/06/25 00:18:27;;;;;;;;;;;26.00;54.00;;;;;;5093244;28;19979;-59
2023/06/25 00:20:54;;;;;;;;;;;26.00;54.00;;;;;;5055322;28;19920;-58
2023/06/25 00:23:21;;;;;;;;;;;26.00;54.00;;;;;;5054962;28;19921;-58
2023/06/25 00:25:48;;;;;;;;;;;26.00;54.00;;;;;;5055256;28;20416;-58
2023/06/25 00:28:15;;;;;;;;;;;25.90;54.00;;;;;;5054954;28;19947;-59
2023/06/25 00:30:42;;;;;;;;;;;25.90;54.00;;;;;;5087287;28;19921;-58
2023/06/25 00:33:09;;;;;;;;;;;25.90;54.00;;;;;;5054945;28;19921;-58
2023/06/25 00:35:56;;;;;;;;;;;25.90;54.00;;;;;;5055243;28;19983;-59
2023/06/25 00:38:22;;;;;;;;;;;25.90;54.00;;;;;;5059042;28;20012;-58
2023/06/25 00:40:50;;;;;;;;;;;25.90;54.10;;;;;;5074881;28;20332;-59
2023/06/25 00:43:21;;;;;;;;;;;25.90;54.10;;;;;;5075149;28;20015;-59
2023/06/25 00:45:48;;;;;;;;;;;25.90;54.10;;;;;;5074698;28;19971;-58
2023/06/25 00:48:15;;;;;;;;;;;25.90;54.10;;;;;;5107124;28;19929;-58
2023/06/25 00:50:42;;;;;;;;;;;25.90;54.10;;;;;;5074746;28;19920;-59
2023/06/25 00:53:09;;;;;;;;;;;25.90;54.20;;;;;;5074444;28;20365;-58
2023/06/25 00:55:36;;;;;;;;;;;25.90;54.20;;;;;;5074816;28;19989;-58
2023/06/25 00:58:04;;;;;;;;;;;25.90;54.20;;;;;;5074749;28;19920;-58
2023/06/25 01:00:33;;;;;;;;;;;25.90;54.20;;;;;;5073645;28;19936;-59
2023/06/25 01:03:26;;;;;;;;;;;25.90;54.20;;;;;;5072926;28;19990;-59
2023/06/25 01:06:12;;;;;;;;;;;25.90;54.20;;;;;;5074451;28;19920;-58
2023/06/25 01:08:41;;;;;;;;;;;25.90;54.20;;;;;;5056429;28;19968;-58
2023/06/25 01:11:10;;;;;;;;;;;25.90;54.20;;;;;;5054339;28;20009;-59
2023/06/25 01:13:38;;;;;;;;;;;25.90;54.20;;;;;;5054412;28;19921;-59
2023/06/25 01:16:05;;;;;;;;;;;25.90;54.40;;;;;;5054529;28;19963;-58
2023/06/25 01:18:33;;;;;;;;;;;25.90;54.20;;;;;;5054475;28;19927;-60
2023/06/25 01:21:00;;;;;;;;;;;25.90;54.20;;;;;;5053967;28;20372;-58
2023/06/25 01:23:29;;;;;;;;;;;25.90;54.20;;;;;;5053244;28;19924;-58
2023/06/25 01:25:56;;;;;;;;;;;25.90;54.30;;;;;;5054436;28;19920;-59
2023/06/25 01:28:23;;;;;;;;;;;25.90;54.20;;;;;;5053857;28;20019;-59
2023/06/25 01:30:51;;;;;;;;;;;25.90;54.20;;;;;;5054211;28;19920;-58
2023/06/25 01:33:20;;;;;;;;;;;25.90;54.20;;;;;;5054137;28;19920;-58
2023/06/25 01:35:47;;;;;;;;;;;25.80;54.10;;;;;;5053785;28;19974;-58
2023/06/25 01:38:14;;;;;;;;;;;25.80;54.10;;;;;;5053691;28;19967;-59
2023/06/25 01:40:42;;;;;;;;;;;25.90;54.20;;;;;;5053707;28;20453;-58
2023/06/25 01:43:09;;;;;;;;;;;25.80;54.10;;;;;;5053680;28;19921;-58
2023/06/25 01:45:36;;;;;;;;;;;25.80;54.10;;;;;;5069253;28;19974;-59
2023/06/25 01:48:03;;;;;;;;;;;25.90;54.30;;;;;;5073717;28;19920;-58
2023/06/25 01:50:30;;;;;;;;;;;25.80;54.20;;;;;;5074008;28;19954;-59
2023/06/25 01:52:57;;;;;;;;;;;25.80;54.30;;;;;;5072875;28;19971;-58
2023/06/25 01:55:24;;;;;;;;;;;25.80;54.20;;;;;;5073940;28;20300;-59
2023/06/25 01:57:51;;;;;;;;;;;25.80;54.20;;;;;;5073422;28;19920;-58
2023/06/25 02:00:20;;;;;;;;;;;25.80;54.20;;;;;;5073401;28;20364;-58
2023/06/25 02:02:47;;;;;;;;;;;25.80;54.30;;;;;;5073726;28;20257;-58
2023/06/25 02:05:14;;;;;;;;;;;25.80;54.30;;;;;;5073423;28;19920;-58
2023/06/25 02:07:41;;;;;;;;;;;25.80;54.30;;;;;;5073617;28;19920;-59
2023/06/25 02:10:09;;;;;;;;;;;25.70;54.30;;;;;;5073135;28;19920;-58
2023/06/25 02:12:36;;;;;;;;;;;25.80;54.40;;;;;;5032822;28;19944;-59
2023/06/25 02:15:03;;;;;;;;;;;25.80;54.40;;;;;;5033351;28;19921;-59
2023/06/25 02:17:30;;;;;;;;;;;25.80;54.40;;;;;;5033509;28;19921;-58
2023/06/25 02:19:58;;;;;;;;;;;25.80;54.40;;;;;;5033615;28;19925;-59
2023/06/25 02:22:25;;;;;;;;;;;25.70;54.30;;;;;;5051384;28;19963;-58
2023/06/25 02:24:52;;;;;;;;;;;25.80;54.40;;;;;;5053382;28;19921;-59
2023/06/25 02:27:19;;;;;;;;;;;25.80;54.40;;;;;;5053335;28;19921;-59
2023/06/25 02:29:46;;;;;;;;;;;25.70;54.40;;;;;;5053292;28;19967;-58
2023/06/25 02:32:13;;;;;;;;;;;25.80;54.40;;;;;;5053224;28;19947;-59
2023/06/25 02:34:40;;;;;;;;;;;25.70;54.40;;;;;;5053649;28;20385;-59
2023/06/25 02:37:14;;;;;;;;;;;25.80;54.40;;;;;;5057356;28;19967;-58
2023/06/25 02:39:41;;;;;;;;;;;25.70;54.40;;;;;;5056982;28;20400;-58
2023/06/25 02:42:07;;;;;;;;;;;25.70;54.40;;;;;;5056884;28;20024;-58
2023/06/25 02:44:35;;;;;;;;;;;25.70;54.40;;;;;;5057109;28;19920;-58
2023/06/25 02:47:02;;;;;;;;;;;25.70;54.40;;;;;;5057249;28;19921;-59
2023/06/25 02:49:29;;;;;;;;;;;25.70;54.40;;;;;;5057082;28;19928;-59
2023/06/25 02:51:56;;;;;;;;;;;25.70;54.40;;;;;;5056975;28;19995;-59
2023/06/25 02:54:23;;;;;;;;;;;25.70;54.40;;;;;;5056806;28;20319;-58
2023/06/25 02:56:52;;;;;;;;;;;25.70;54.40;;;;;;5057061;28;20012;-59
2023/06/25 02:59:19;;;;;;;;;;;25.80;54.50;;;;;;5056675;28;20434;-58
2023/06/25 03:01:46;;;;;;;;;;;25.70;54.50;;;;;;5088892;28;19966;-58
2023/06/25 03:04:13;;;;;;;;;;;25.70;54.50;;;;;;5056896;28;19968;-58
2023/06/25 03:06:40;;;;;;;;;;;25.70;54.50;;;;;;5056641;28;20023;-59
2023/06/25 03:09:08;;;;;;;;;;;25.70;54.50;;;;;;5056574;28;20456;-59
2023/06/25 03:11:35;;;;;;;;;;;25.70;54.50;;;;;;5056534;28;19982;-58
2023/06/25 03:14:04;;;;;;;;;;;25.80;54.50;;;;;;5056578;28;19964;-58
2023/06/25 03:16:30;;;;;;;;;;;25.70;54.40;;;;;;5056667;28;20364;-59
2023/06/25 03:18:58;;;;;;;;;;;25.80;54.50;;;;;;5056481;28;20369;-59
2023/06/25 03:21:25;;;;;;;;;;;25.80;54.50;;;;;;5056224;28;19921;-58
2023/06/25 03:23:52;;;;;;;;;;;25.80;54.50;;;;;;5056349;28;19920;-58
2023/06/25 03:26:19;;;;;;;;;;;25.80;54.50;;;;;;5056274;28;19968;-58
2023/06/25 03:28:46;;;;;;;;;;;25.80;54.40;;;;;;5056478;28;20012;-59
2023/06/25 03:31:13;;;;;;;;;;;25.80;54.40;;;;;;5055528;28;19927;-58
2023/06/25 03:33:40;;;;;;;;;;;25.80;54.40;;;;;;5055909;28;19921;-58
2023/06/25 03:36:07;;;;;;;;;;;25.80;54.30;;;;;;5056223;28;20477;-58
2023/06/25 03:38:34;;;;;;;;;;;25.80;54.30;;;;;;5055838;28;19921;-59
2023/06/25 03:41:01;;;;;;;;;;;25.80;54.20;;;;;;5056055;28;19933;-58
2023/06/25 03:43:28;;;;;;;;;;;25.80;54.20;;;;;;5056334;28;19921;-58
2023/06/25 03:45:55;;;;;;;;;;;25.80;54.20;;;;;;5056074;28;19921;-59
2023/06/25 03:48:22;;;;;;;;;;;25.80;54.20;;;;;;5055044;28;19921;-58
2023/06/25 03:50:49;;;;;;;;;;;25.80;54.20;;;;;;5056188;28;19924;-58
2023/06/25 03:53:17;;;;;;;;;;;25.80;54.20;;;;;;5056003;28;19968;-58
2023/06/25 03:55:44;;;;;;;;;;;25.90;54.20;;;;;;5055797;28;19964;-58
2023/06/25 03:58:10;;;;;;;;;;;25.80;54.20;;;;;;5055829;28;19975;-58
2023/06/25 04:00:37;;;;;;;;;;;25.80;54.10;;;;;;5055435;28;19968;-58
2023/06/25 04:03:04;;;;;;;;;;;25.80;54.10;;;;;;5055602;28;19968;-58
2023/06/25 04:05:31;;;;;;;;;;;25.90;54.20;;;;;;5055680;28;19921;-58
2023/06/25 04:07:58;;;;;;;;;;;25.80;54.70;;;;;;5055397;28;19952;-60
2023/06/25 04:10:25;;;;;;;;;;;25.90;54.20;;;;;;5055766;28;20003;-59
2023/06/25 04:12:52;;;;;;;;;;;25.90;54.20;;;;;;5055102;28;19974;-59
2023/06/25 04:15:19;;;;;;;;;;;25.90;54.10;;;;;;5055485;28;20023;-59
2023/06/25 04:17:49;;;;;;;;;;;25.90;54.00;;;;;;5055541;28;19943;-59
2023/06/25 04:20:16;;;;;;;;;;;25.90;54.00;;;;;;5072033;28;19978;-58
2023/06/25 04:22:43;;;;;;;;;;;25.90;54.00;;;;;;5075227;28;20019;-58
2023/06/25 04:25:10;;;;;;;;;;;26.00;54.00;;;;;;5075484;28;20417;-58
2023/06/25 04:27:37;;;;;;;;;;;26.00;53.90;;;;;;5075328;28;19920;-58
2023/06/25 04:30:04;;;;;;;;;;;26.00;54.20;;;;;;5075263;28;20007;-59
2023/06/25 04:32:32;;;;;;;;;;;26.10;53.90;;;;;;5075093;28;20412;-59
2023/06/25 04:35:00;;;;;;;;;;;26.10;53.90;;;;;;5074983;28;19924;-58
2023/06/25 04:37:27;;;;;;;;;;;26.10;53.80;;;;;;5075340;28;20020;-58
2023/06/25 04:39:54;;;;;;;;;;;26.20;53.70;;;;;;5067347;28;20269;-58
2023/06/25 04:42:21;;;;;;;;;;;26.20;53.40;;;;;;5054759;28;19943;-58
2023/06/25 04:44:49;;;;;;;;;;;26.20;53.20;;;;;;5054962;28;19971;-59
2023/06/25 04:47:16;;;;;;;;;;;26.30;53.00;;;;;;5054775;28;19975;-58
2023/06/25 04:49:43;;;;;;;;;;;26.30;52.90;;;;;;5054727;28;20340;-58
2023/06/25 04:52:18;;;;;;;;;;;26.30;52.70;;;;;;5054935;28;19925;-58
2023/06/25 04:54:45;;;;;;;;;;;26.30;52.60;;;;;;5054637;28;19921;-58
2023/06/25 04:57:13;;;;;;;;;;;26.40;52.40;;;;;;5053550;28;20288;-58
2023/06/25 04:59:40;;;;;;;;;;;26.40;52.30;;;;;;5085576;28;20024;-58
2023/06/25 05:02:06;;;;;;;;;;;26.40;52.20;;;;;;5052395;28;20391;-60
2023/06/25 05:04:34;;;;;;;;;;;26.40;52.00;;;;;;5054337;28;19920;-58
2023/06/25 05:07:01;;;;;;;;;;;26.40;51.80;;;;;;5054367;28;20365;-58
2023/06/25 05:09:28;;;;;;;;;;;26.50;51.70;;;;;;5056256;28;20011;-58
2023/06/25 05:11:55;;;;;;;;;;;26.50;51.50;;;;;;5074219;28;20364;-59
2023/06/25 05:14:21;;;;;;;;;;;26.50;51.40;;;;;;5074611;28;19942;-58
2023/06/25 05:16:48;;;;;;;;;;;26.50;51.10;;;;;;5074503;28;19963;-58
2023/06/25 05:19:15;;;;;;;;;;;26.50;51.00;;;;;;5074480;28;20003;-58
2023/06/25 05:21:42;;;;;;;;;;;26.50;50.90;;;;;;5074013;28;19995;-59
2023/06/25 05:24:09;;;;;;;;;;;26.50;50.70;;;;;;5073983;28;19986;-58
2023/06/25 05:26:36;;;;;;;;;;;26.50;50.50;;;;;;5074301;28;19921;-58
2023/06/25 05:29:03;;;;;;;;;;;26.50;50.30;;;;;;5074212;28;19920;-58
2023/06/25 05:31:30;;;;;;;;;;;26.60;50.30;;;;;;5073934;28;19927;-58
2023/06/25 05:33:57;;;;;;;;;;;26.60;50.80;;;;;;5074303;28;19928;-58
2023/06/25 05:36:24;;;;;;;;;;;26.60;50.10;;;;;;5074238;28;19924;-58
2023/06/25 05:38:51;;;;;;;;;;;26.60;50.00;;;;;;5074017;28;19921;-59
2023/06/25 05:41:18;;;;;;;;;;;26.60;49.90;;;;;;5073918;28;19993;-58
2023/06/25 05:43:45;;;;;;;;;;;26.70;50.10;;;;;;5073726;28;20373;-58
2023/06/25 05:46:13;;;;;;;;;;;26.70;49.80;;;;;;5073528;28;20376;-58
2023/06/25 05:48:40;;;;;;;;;;;26.70;49.70;;;;;;5062149;28;20353;-58
2023/06/25 05:51:07;;;;;;;;;;;26.70;49.60;;;;;;5053185;28;19954;-58
2023/06/25 05:53:39;;;;;;;;;;;26.70;49.60;;;;;;5053891;28;19996;-58
2023/06/25 05:56:06;;;;;;;;;;;26.70;49.60;;;;;;5053627;28;20370;-59
2023/06/25 05:58:33;;;;;;;;;;;26.70;49.50;;;;;;5053591;28;19990;-59
2023/06/25 06:01:01;;;;;;;;;;;26.70;50.10;;;;;;5053349;28;20011;-58
2023/06/25 06:03:28;;;;;;;;;;;26.70;49.50;;;;;;5058958;28;20357;-58
2023/06/25 06:05:56;;;;;;;;;;;26.70;49.40;;;;;;5106214;28;20317;-58
2023/06/25 06:08:23;;;;;;;;;;;26.60;49.30;;;;;;5073441;28;19971;-58
2023/06/25 06:10:51;;;;;;;;;;;26.70;49.40;;;;;;5064577;28;19967;-58
2023/06/25 06:13:18;;;;;;;;;;;26.70;49.40;;;;;;5053670;28;19959;-58
2023/06/25 06:15:44;;;;;;;;;;;26.70;49.30;;;;;;5053766;28;20285;-58
2023/06/25 06:18:11;;;;;;;;;;;26.70;49.30;;;;;;5053383;28;19979;-58
2023/06/25 06:20:38;;;;;;;;;;;26.70;49.30;;;;;;5053402;28;19921;-58
2023/06/25 06:23:05;;;;;;;;;;;26.70;49.20;;;;;;5053055;28;20015;-58
2023/06/25 06:25:32;;;;;;;;;;;26.70;49.20;;;;;;5053366;28;19971;-58
2023/06/25 06:27:59;;;;;;;;;;;26.70;49.20;;;;;;5053438;28;19999;-58
2023/06/25 06:30:26;;;;;;;;;;;26.70;49.20;;;;;;5052916;28;20432;-58
2023/06/25 06:32:53;;;;;;;;;;;26.60;49.10;;;;;;5052389;28;19929;-58
2023/06/25 06:35:20;;;;;;;;;;;26.60;49.10;;;;;;5053164;28;20365;-58
2023/06/25 06:37:47;;;;;;;;;;;26.60;49.00;;;;;;5066588;28;20468;-58
2023/06/25 06:40:14;;;;;;;;;;;26.60;49.50;;;;;;5073452;28;19970;-58
2023/06/25 06:42:41;;;;;;;;;;;26.60;49.00;;;;;;5072319;28;20432;-58
2023/06/25 06:45:08;;;;;;;;;;;26.60;48.90;;;;;;5073435;28;20003;-58
2023/06/25 06:47:35;;;;;;;;;;;26.60;48.90;;;;;;5073325;28;19920;-58
2023/06/25 06:50:02;;;;;;;;;;;26.60;49.00;;;;;;5062358;28;19996;-58
2023/06/25 06:52:29;;;;;;;;;;;26.60;49.00;;;;;;5053277;28;19956;-58
2023/06/25 06:54:56;;;;;;;;;;;26.60;49.00;;;;;;5053019;28;19971;-58
2023/06/25 06:57:23;;;;;;;;;;;26.60;49.00;;;;;;5053220;28;19971;-58
2023/06/25 06:59:49;;;;;;;;;;;26.60;49.00;;;;;;5051455;28;19971;-58
2023/06/25 07:02:16;;;;;;;;;;;26.60;49.00;;;;;;5053051;28;20353;-58
2023/06/25 07:04:43;;;;;;;;;;;26.60;49.00;;;;;;5052774;28;19995;-58
2023/06/25 07:07:10;;;;;;;;;;;26.60;49.00;;;;;;5053116;28;20262;-58
2023/06/25 07:09:48;;;;;;;;;;;26.60;49.00;;;;;;5053057;28;19967;-58
2023/06/25 07:12:15;;;;;;;;;;;26.60;49.50;;;;;;5052743;28;20365;-58
2023/06/25 07:14:42;;;;;;;;;;;26.60;48.80;;;;;;5053117;28;19920;-58
2023/06/25 07:17:09;;;;;;;;;;;26.70;48.80;;;;;;5052765;28;19960;-58
2023/06/25 07:19:36;;;;;;;;;;;26.70;48.80;;;;;;5053084;28;19963;-58
2023/06/25 07:22:03;;;;;;;;;;;26.70;48.70;;;;;;5053669;28;19921;-58
2023/06/25 07:24:30;;;;;;;;;;;26.70;48.80;;;;;;5056618;28;19966;-60
2023/06/25 07:26:57;;;;;;;;;;;26.70;49.20;;;;;;5056556;28;20340;-58
2023/06/25 07:29:23;;;;;;;;;;;26.70;48.70;;;;;;5056043;28;20011;-58
2023/06/25 07:31:50;;;;;;;;;;;26.80;48.70;;;;;;5056034;28;19931;-58
2023/06/25 07:34:17;;;;;;;;;;;26.70;48.60;;;;;;5056444;28;20280;-58
2023/06/25 07:36:44;;;;;;;;;;;26.80;48.60;;;;;;5055039;28;19921;-58
2023/06/25 07:39:20;;;;;;;;;;;26.80;48.70;;;;;;5056354;28;19978;-58
2023/06/25 07:41:47;;;;;;;;;;;26.80;48.70;;;;;;5056079;28;19921;-58
2023/06/25 07:44:14;;;;;;;;;;;26.70;48.80;;;;;;5056314;28;19921;-58
2023/06/25 07:47:01;;;;;;;;;;;26.70;48.80;;;;;;5055785;28;19921;-58
2023/06/25 07:49:28;;;;;;;;;;;26.70;48.80;;;;;;5055818;28;19963;-58
2023/06/25 07:51:55;;;;;;;;;;;26.80;48.90;;;;;;5055566;28;20276;-58
2023/06/25 07:54:22;;;;;;;;;;;26.80;48.90;;;;;;5055898;28;20020;-58
2023/06/25 07:56:49;;;;;;;;;;;26.80;48.90;;;;;;5074670;28;20015;-58
2023/06/25 07:59:17;;;;;;;;;;;26.80;48.90;;;;;;5075664;28;20015;-58
2023/06/25 08:01:45;;;;;;;;;;;26.80;48.90;;;;;;5068338;28;19975;-58
2023/06/25 08:04:12;;;;;;;;;;;26.80;48.90;;;;;;5055588;28;19928;-58
2023/06/25 08:06:39;;;;;;;;;;;26.80;48.90;;;;;;5055794;28;19928;-59
2023/06/25 08:09:06;;;;;;;;;;;26.80;49.40;;;;;;5055773;28;19921;-58
2023/06/25 08:11:33;;;;;;;;;;;26.80;48.80;;;;;;5055700;28;20344;-58
2023/06/25 08:14:00;;;;;;;;;;;26.80;48.70;;;;;;5055823;28;19924;-58
2023/06/25 08:16:28;;;;;;;;;;;26.80;48.80;;;;;;5056041;28;20344;-58
2023/06/25 08:18:55;;;;;;;;;;;26.80;48.70;;;;;;5055724;28;20015;-58
2023/06/25 08:21:22;;;;;;;;;;;26.80;48.60;;;;;;5055474;28;20019;-58
2023/06/25 08:23:49;;;;;;;;;;;26.80;48.60;;;;;;5055206;28;19924;-58
2023/06/25 08:26:16;;;;;;;;;;;26.90;48.80;;;;;;5055633;28;20341;-58
2023/06/25 08:28:43;;;;;;;;;;;26.90;48.80;;;;;;5054999;28;19968;-58
2023/06/25 08:31:10;;;;;;;;;;;26.90;48.80;;;;;;5055251;28;20023;-58
2023/06/25 08:33:38;;;;;;;;;;;26.90;48.80;;;;;;5055218;28;19943;-58
2023/06/25 08:36:05;;;;;;;;;;;26.90;48.70;;;;;;5054974;28;19928;-58
2023/06/25 08:38:32;;;;;;;;;;;26.90;48.80;;;;;;5055057;28;19921;-58
2023/06/25 08:40:59;;;;;;;;;;;26.90;48.80;;;;;;5055426;28;19956;-58
2023/06/25 08:43:27;;;;;;;;;;;26.90;48.90;;;;;;5054913;28;19924;-58
2023/06/25 08:45:54;;;;;;;;;;;26.90;48.90;;;;;;5054960;28;19921;-58
2023/06/25 08:48:22;;;;;;;;;;;26.90;49.00;;;;;;5055100;28;20015;-58
2023/06/25 08:50:51;;;;;;;;;;;26.80;49.00;;;;;;5054858;28;19924;-58
2023/06/25 08:53:18;;;;;;;;;;;26.80;49.00;;;;;;5054865;28;19978;-58
2023/06/25 08:55:46;;;;;;;;;;;26.80;49.10;;;;;;5055042;28;20020;-59
2023/06/25 08:58:13;;;;;;;;;;;26.80;49.20;;;;;;5054569;28;19990;-58
2023/06/25 09:00:40;;;;;;;;;;;26.80;49.20;;;;;;5054488;28;19971;-58
2023/06/25 09:03:07;;;;;;;;;;;26.80;49.20;;;;;;5053544;28;20385;-58
2023/06/25 09:05:35;;;;;;;;;;;26.80;49.30;;;;;;5054641;28;19920;-58
2023/06/25 09:08:02;;;;;;;;;;;26.80;49.30;;;;;;5054506;28;20439;-58
2023/06/25 09:10:31;;;;;;;;;;;26.80;49.30;;;;;;5053237;28;19921;-58
2023/06/25 09:13:00;;;;;;;;;;;26.70;49.30;;;;;;5053967;28;19920;-58
2023/06/25 09:15:28;;;;;;;;;;;26.70;49.30;;;;;;5054443;28;20023;-58
2023/06/25 09:17:56;;;;;;;;;;;26.80;49.50;;;;;;5054336;28;19982;-58
2023/06/25 09:20:23;;;;;;;;;;;26.70;49.30;;;;;;5054163;28;19968;-58
2023/06/25 09:22:51;;;;;;;;;;;26.70;49.50;;;;;;5053890;28;20011;-58
2023/06/25 09:25:18;;;;;;;;;;;26.70;49.30;;;;;;5053974;28;20328;-58
2023/06/25 09:27:47;;;;;;;;;;;26.70;49.30;;;;;;5053962;28;19920;-58
2023/06/25 09:30:14;;;;;;;;;;;26.70;49.30;;;;;;5054042;28;19921;-58
2023/06/25 09:32:47;;;;;;;;;;;26.80;49.40;;;;;;5053814;28;19947;-58
2023/06/25 09:35:24;;;;;;;;;;;26.80;49.20;;;;;;5053992;28;19921;-58
2023/06/25 09:37:52;;;;;;;;;;;26.80;49.20;;;;;;5053959;28;19924;-59
2023/06/25 09:40:19;;;;;;;;;;;26.80;49.00;;;;;;5052591;28;20011;-58
2023/06/25 09:42:51;;;;;;;;;;;26.90;49.00;;;;;;5053506;28;19975;-58
2023/06/25 09:45:19;;;;;;;;;;;26.90;48.90;;;;;;5052075;28;20385;-58
2023/06/25 09:47:47;;;;;;;;;;;27.00;48.80;;;;;;5054025;28;20007;-58
2023/06/25 09:50:18;;;;;;;;;;;27.00;48.80;;;;;;5053624;28;20434;-58
2023/06/25 09:52:48;;;;;;;;;;;27.00;48.70;;;;;;5053708;28;19920;-58
2023/06/25 09:55:16;;;;;;;;;;;27.00;48.70;;;;;;5053600;28;19920;-58
2023/06/25 09:57:43;;;;;;;;;;;27.00;48.70;;;;;;5053538;28;20373;-58
2023/06/25 10:00:11;;;;;;;;;;;27.00;48.70;;;;;;5053918;28;20019;-58
2023/06/25 10:02:38;;;;;;;;;;;27.10;48.70;;;;;;5053579;28;19921;-58
2023/06/25 10:05:05;;;;;;;;;;;27.10;48.70;;;;;;5053471;28;19927;-58
2023/06/25 10:07:33;;;;;;;;;;;27.10;48.60;;;;;;5053903;28;20024;-58
2023/06/25 10:10:00;;;;;;;;;;;27.10;48.60;;;;;;5053656;28;19921;-59
2023/06/25 10:12:31;;;;;;;;;;;27.10;48.60;;;;;;5053199;28;19975;-58
2023/06/25 10:14:59;;;;;;;;;;;27.20;48.60;;;;;;5053787;28;20011;-59
2023/06/25 10:17:26;;;;;;;;;;;27.20;48.60;;;;;;5053494;28;20368;-58
2023/06/25 10:19:58;;;;;;;;;;;27.20;48.50;;;;;;5053727;28;20019;-59
2023/06/25 10:22:26;;;;;;;;;;;27.30;48.40;;;;;;5052783;28;19925;-58
2023/06/25 10:24:53;;;;;;;;;;;27.30;48.20;;;;;;5053203;28;19971;-58
2023/06/25 10:27:31;;;;;;;;;;;27.30;48.20;;;;;;5053384;28;19928;-58
2023/06/25 10:29:58;;;;;;;;;;;27.30;48.20;;;;;;5053257;28;20317;-59
2023/06/25 10:32:26;;;;;;;;;;;27.30;48.30;;;;;;5052988;28;19991;-58
2023/06/25 10:34:54;;;;;;;;;;;27.30;48.40;;;;;;5053288;28;19920;-58
2023/06/25 10:37:21;;;;;;;;;;;27.20;48.40;;;;;;5053113;28;19921;-59
2023/06/25 10:39:48;;;;;;;;;;;27.20;48.50;;;;;;5053174;28;20012;-59
2023/06/25 10:42:16;;;;;;;;;;;27.20;48.60;;;;;;5058740;28;19943;-59
2023/06/25 10:44:43;;;;;;;;;;;27.20;48.70;;;;;;5073059;28;19971;-58
2023/06/25 10:47:10;;;;;;;;;;;27.20;48.80;;;;;;5073490;28;19986;-59
2023/06/25 10:49:37;;;;;;;;;;;27.20;48.90;;;;;;5072951;28;19927;-59
2023/06/25 10:52:05;;;;;;;;;;;27.20;48.70;;;;;;5052672;28;19974;-59
2023/06/25 10:54:33;;;;;;;;;;;27.20;48.70;;;;;;5053390;28;20312;-58
2023/06/25 10:57:10;;;;;;;;;;;27.20;48.60;;;;;;5074609;28;19920;-58
2023/06/25 10:59:38;;;;;;;;;;;27.20;48.50;;;;;;5077157;28;19921;-58
2023/06/25 11:02:09;;;;;;;;;;;27.20;48.70;;;;;;5061181;28;19925;-60
2023/06/25 11:04:36;;;;;;;;;;;27.30;48.60;;;;;;5056647;28;19921;-58
2023/06/25 11:07:03;;;;;;;;;;;27.20;48.50;;;;;;5056687;28;19920;-58
2023/06/25 11:09:31;;;;;;;;;;;27.20;48.50;;;;;;5056789;28;19956;-59
2023/06/25 11:11:58;;;;;;;;;;;27.30;48.50;;;;;;5074867;28;20388;-59
2023/06/25 11:14:25;;;;;;;;;;;27.30;48.50;;;;;;5076490;28;20057;-59
2023/06/25 11:16:52;;;;;;;;;;;27.30;48.50;;;;;;5076454;28;19925;-59
2023/06/25 11:19:23;;;;;;;;;;;27.40;48.40;;;;;;5076504;28;20011;-59
2023/06/25 11:21:50;;;;;;;;;;;27.40;48.40;;;;;;5065639;28;20444;-59
2023/06/25 11:24:17;;;;;;;;;;;27.40;48.30;;;;;;5056539;28;19927;-59
2023/06/25 11:26:44;;;;;;;;;;;27.50;48.20;;;;;;5056430;28;20343;-59
2023/06/25 11:29:11;;;;;;;;;;;27.50;48.00;;;;;;5056579;28;20270;-59
2023/06/25 11:31:48;;;;;;;;;;;27.60;47.90;;;;;;5076102;28;20373;-59
2023/06/25 11:34:22;;;;;;;;;;;27.60;47.70;;;;;;5076146;28;20354;-59
2023/06/25 11:36:49;;;;;;;;;;;27.70;47.70;;;;;;5076138;28;19920;-59
2023/06/25 11:39:16;;;;;;;;;;;27.70;47.60;;;;;;5076322;28;19926;-59
2023/06/25 11:41:43;;;;;;;;;;;27.70;47.40;;;;;;5076002;28;20019;-59
2023/06/25 11:44:17;;;;;;;;;;;27.80;47.40;;;;;;5076038;28;20018;-59
2023/06/25 11:46:46;;;;;;;;;;;27.80;47.40;;;;;;5067218;28;20381;-59
2023/06/25 11:49:13;;;;;;;;;;;27.80;47.30;;;;;;5056289;28;20344;-60
2023/06/25 11:51:40;;;;;;;;;;;27.80;47.80;;;;;;5060957;28;20023;-59
2023/06/25 11:54:07;;;;;;;;;;;27.90;47.30;;;;;;5075160;28;20390;-59
2023/06/25 11:56:34;;;;;;;;;;;27.90;47.20;;;;;;5075953;28;20011;-59
2023/06/25 11:59:01;;;;;;;;;;;27.90;47.20;;;;;;5075771;28;20444;-59
2023/06/25 12:01:29;;;;;;;;;;;27.90;47.20;;;;;;5076056;28;20265;-59
2023/06/25 12:03:56;;;;;;;;;;;27.90;47.30;;;;;;5061378;28;19963;-59
2023/06/25 12:06:25;;;;;;;;;;;27.90;47.50;;;;;;5055600;28;19921;-59
2023/06/25 12:08:52;;;;;;;;;;;27.80;48.00;;;;;;5055076;28;20436;-59
2023/06/25 12:11:19;;;;;;;;;;;27.90;47.40;;;;;;5067057;28;19927;-59
2023/06/25 12:13:46;;;;;;;;;;;27.80;47.40;;;;;;5075345;28;19920;-59
2023/06/25 12:16:12;;;;;;;;;;;27.90;47.50;;;;;;5073076;28;19975;-59
2023/06/25 12:18:39;;;;;;;;;;;27.90;47.40;;;;;;5055351;28;20007;-59
2023/06/25 12:21:06;;;;;;;;;;;27.90;47.50;;;;;;5055495;28;19956;-58
2023/06/25 12:23:33;;;;;;;;;;;27.90;47.40;;;;;;5054783;28;20361;-59
2023/06/25 12:26:01;;;;;;;;;;;27.90;47.40;;;;;;5055399;28;19920;-59
2023/06/25 12:28:28;;;;;;;;;;;27.90;47.40;;;;;;5055108;28;19927;-59
2023/06/25 12:30:55;;;;;;;;;;;27.90;47.30;;;;;;5055367;28;19990;-59
2023/06/25 12:33:22;;;;;;;;;;;27.90;47.40;;;;;;5055266;28;19920;-59
2023/06/25 12:35:49;;;;;;;;;;;27.90;47.50;;;;;;5087829;28;20011;-59
2023/06/25 12:38:16;;;;;;;;;;;27.90;47.50;;;;;;5074629;28;19921;-59
2023/06/25 12:40:43;;;;;;;;;;;27.90;47.50;;;;;;5075296;28;19921;-59
2023/06/25 12:43:10;;;;;;;;;;;27.90;47.50;;;;;;5075040;28;19990;-58
2023/06/25 12:45:36;;;;;;;;;;;27.90;47.40;;;;;;5075116;28;19920;-58
2023/06/25 12:48:04;;;;;;;;;;;27.90;47.40;;;;;;5074806;28;19967;-59
2023/06/25 12:50:31;;;;;;;;;;;27.90;47.50;;;;;;5075111;28;20292;-59
2023/06/25 12:52:58;;;;;;;;;;;27.90;47.40;;;;;;5074578;28;20438;-59
2023/06/25 12:55:25;;;;;;;;;;;27.90;47.50;;;;;;5074881;28;20335;-59
2023/06/25 12:57:52;;;;;;;;;;;27.90;47.40;;;;;;5074777;28;19927;-59
2023/06/25 13:00:19;;;;;;;;;;;27.90;47.30;;;;;;5074467;28;19927;-59
2023/06/25 13:03:06;;;;;;;;;;;28.00;47.30;;;;;;5074051;28;19921;-59
2023/06/25 13:05:33;;;;;;;;;;;28.00;47.30;;;;;;5074421;28;19927;-59
2023/06/25 13:08:00;;;;;;;;;;;28.00;47.30;;;;;;5061589;28;19927;-59
2023/06/25 13:10:27;;;;;;;;;;;28.00;47.80;;;;;;5054701;28;19966;-59
2023/06/25 13:12:53;;;;;;;;;;;27.90;47.20;;;;;;5054265;28;19931;-59
2023/06/25 13:15:20;;;;;;;;;;;27.90;47.20;;;;;;5054332;28;20369;-59
2023/06/25 13:17:47;;;;;;;;;;;27.90;47.40;;;;;;5054457;28;20015;-59
2023/06/25 13:20:14;;;;;;;;;;;27.90;47.40;;;;;;5053153;28;19967;-59
2023/06/25 13:22:42;;;;;;;;;;;27.90;47.40;;;;;;5059120;28;20019;-59
2023/06/25 13:25:09;;;;;;;;;;;27.80;47.50;;;;;;5074231;28;19920;-59
2023/06/25 13:27:36;;;;;;;;;;;27.80;47.60;;;;;;5074155;28;19971;-59
2023/06/25 13:30:03;;;;;;;;;;;27.80;47.50;;;;;;5074011;28;19920;-59
2023/06/25 13:32:30;;;;;;;;;;;27.80;47.50;;;;;;5074119;28;19920;-58
2023/06/25 13:34:57;;;;;;;;;;;27.80;47.50;;;;;;5066859;28;20011;-59
2023/06/25 13:37:24;;;;;;;;;;;27.80;47.50;;;;;;5053893;28;19979;-58
2023/06/25 13:39:51;;;;;;;;;;;27.80;47.40;;;;;;5053536;28;19927;-58
2023/06/25 13:42:18;;;;;;;;;;;27.80;47.40;;;;;;5052222;28;20012;-59
2023/06/25 13:44:45;;;;;;;;;;;27.90;47.40;;;;;;5053541;28;19927;-59
2023/06/25 13:47:12;;;;;;;;;;;27.90;47.30;;;;;;5053717;28;20376;-58
2023/06/25 13:49:39;;;;;;;;;;;27.90;47.20;;;;;;5058102;28;20295;-58
2023/06/25 13:52:06;;;;;;;;;;;28.00;47.30;;;;;;5073921;28;20360;-58
2023/06/25 13:54:33;;;;;;;;;;;27.90;47.10;;;;;;5070722;28;19920;-59
2023/06/25 13:57:02;;;;;;;;;;;28.00;47.10;;;;;;5053309;28;19927;-59
2023/06/25 13:59:29;;;;;;;;;;;28.00;47.10;;;;;;5053862;28;19924;-59
2023/06/25 14:01:56;;;;;;;;;;;28.00;47.10;;;;;;5053619;28;20331;-59
2023/06/25 14:04:23;;;;;;;;;;;28.00;47.10;;;;;;5053068;28;20012;-59
2023/06/25 14:06:50;;;;;;;;;;;28.00;46.80;;;;;;5053626;28;19931;-59
2023/06/25 14:09:18;;;;;;;;;;;28.00;46.80;;;;;;5053796;28;19927;-59
2023/06/25 14:11:45;;;;;;;;;;;28.00;47.20;;;;;;5053729;28;19964;-58
2023/06/25 14:14:12;;;;;;;;;;;28.10;47.70;;;;;;5053661;28;19970;-58
2023/06/25 14:16:38;;;;;;;;;;;28.00;48.10;;;;;;5053443;28;19964;-59
2023/06/25 14:19:05;;;;;;;;;;;28.00;48.40;;;;;;5053668;28;19921;-58